Time;durP1;ratioP1;P1;durP2;ratioP2;P2;SDS_P1;SDS_P2;PMS_P1;PMS_P2;Temp;Humidity;BMP_temperature;BMP_pressure;BME280_temperature;BME280_humidity;BME280_pressure;Samples;Min_cycle;Max_cycle;Signal;HPM_P1;HPM_P2
2024/04/12 00:04:09;;;;;;;19.30;12.73;;;13.90;99.90;;;;;;21980190;26;20007;-44
2024/04/12 00:14:12;;;;;;;14.82;10.45;;;13.90;99.90;;;;;;21996009;26;20004;-44
2024/04/12 00:24:15;;;;;;;13.02;10.13;;;14.00;99.90;;;;;;21995123;26;20512;-44
2024/04/12 00:34:16;;;;;;;18.75;13.82;;;13.90;99.90;;;;;;21989790;26;19997;-45
2024/04/12 00:44:19;;;;;;;17.92;12.80;;;13.90;99.90;;;;;;21988207;26;20019;-44
2024/04/12 00:54:20;;;;;;;12.10;9.63;;;14.00;99.90;;;;;;21991899;26;20067;-44
2024/04/12 01:04:21;;;;;;;11.18;8.52;;;14.00;99.90;;;;;;21988546;26;20093;-44
2024/04/12 01:14:25;;;;;;;11.93;8.82;;;13.90;99.90;;;;;;21996817;26;20001;-44
2024/04/12 01:24:26;;;;;;;10.07;7.68;;;13.70;99.90;;;;;;21991414;26;19997;-44
2024/04/12 01:34:29;;;;;;;10.23;6.78;;;13.70;99.90;;;;;;21997021;26;20012;-44
2024/04/12 01:44:31;;;;;;;10.52;6.50;;;13.70;99.90;;;;;;21990045;26;19997;-44
2024/04/12 01:54:32;;;;;;;11.38;7.15;;;13.70;99.90;;;;;;21991271;26;20079;-44
2024/04/12 02:04:34;;;;;;;10.52;7.18;;;13.70;99.90;;;;;;21983383;26;20306;-44
2024/04/12 02:14:35;;;;;;;14.20;10.30;;;13.70;99.90;;;;;;21977296;26;20016;-44
2024/04/12 02:24:39;;;;;;;15.43;10.07;;;13.70;99.90;;;;;;21985398;26;20435;-44
2024/04/12 02:34:41;;;;;;;13.90;8.73;;;13.80;99.90;;;;;;21980945;26;20080;-44
2024/04/12 02:44:42;;;;;;;13.05;9.05;;;13.80;99.90;;;;;;21985757;26;20011;-44
2024/04/12 02:54:44;;;;;;;11.32;7.95;;;13.80;99.90;;;;;;21981101;26;20025;-44
2024/04/12 03:04:46;;;;;;;12.35;7.13;;;13.80;99.90;;;;;;21974117;26;20033;-44
2024/04/12 03:14:47;;;;;;;12.20;7.82;;;13.80;99.90;;;;;;21975865;26;20522;-44
2024/04/12 03:24:48;;;;;;;10.75;7.47;;;13.80;99.90;;;;;;21967160;26;20336;-44
2024/04/12 03:34:51;;;;;;;11.40;7.45;;;13.80;99.90;;;;;;21983504;26;20789;-44
2024/04/12 03:44:52;;;;;;;9.35;6.95;;;13.80;99.90;;;;;;21977894;26;20369;-44
2024/04/12 03:55:08;;;;;;;10.98;7.15;;;13.80;99.90;;;;;;21988687;26;20338;-44
2024/04/12 04:05:16;;;;;;;11.18;7.43;;;13.80;99.90;;;;;;21987993;26;20539;-44
2024/04/12 04:15:17;;;;;;;10.52;6.72;;;13.80;99.90;;;;;;21999582;26;20372;-44
2024/04/12 04:25:19;;;;;;;11.13;7.30;;;13.80;99.90;;;;;;21996983;26;20009;-44
2024/04/12 04:35:26;;;;;;;11.90;7.18;;;13.70;99.90;;;;;;21993685;26;20127;-44
2024/04/12 04:45:32;;;;;;;10.65;7.28;;;13.60;99.90;;;;;;21988083;26;20014;-44
2024/04/12 04:55:35;;;;;;;11.20;8.23;;;13.70;99.90;;;;;;21993802;26;20036;-44
2024/04/12 05:05:41;;;;;;;14.60;9.25;;;13.70;99.90;;;;;;21973894;26;20008;-44
2024/04/12 05:25:44;;;;;;;15.40;10.90;;;13.60;99.90;;;;;;21985785;26;20152;-44
2024/04/12 05:35:46;;;;;;;14.85;11.02;;;13.70;99.90;;;;;;21984021;26;20008;-44
2024/04/12 05:45:49;;;;;;;19.40;11.35;;;13.60;99.90;;;;;;21985720;26;20018;-44
2024/04/12 05:56:20;;;;;;;17.67;11.35;;;13.60;99.90;;;;;;21994276;26;20023;-44
2024/04/12 06:06:15;;;;;;;21.35;12.15;;;13.60;99.90;;;;;;21980260;26;19997;-45
2024/04/12 06:16:17;;;;;;;15.30;10.68;;;13.70;99.90;;;;;;21994004;26;19993;-44
2024/04/12 06:26:22;;;;;;;15.68;10.57;;;13.90;99.90;;;;;;21975212;26;20013;-44
2024/04/12 06:36:24;;;;;;;16.77;10.73;;;14.10;99.90;;;;;;21976190;26;20104;-44
2024/04/12 06:46:27;;;;;;;16.25;9.85;;;14.20;99.90;;;;;;21986863;26;20017;-44
2024/04/12 06:56:33;;;;;;;16.00;8.50;;;14.30;99.90;;;;;;21989610;26;20551;-44
2024/04/12 07:06:34;;;;;;;15.70;8.88;;;14.40;99.90;;;;;;21967292;26;20001;-44
2024/04/12 07:16:35;;;;;;;13.75;8.40;;;14.40;99.90;;;;;;21986250;26;20000;-44
2024/04/12 07:26:37;;;;;;;12.65;7.72;;;14.70;90.80;;;;;;21988855;26;20010;-44
2024/04/12 07:36:39;;;;;;;14.77;7.88;;;14.80;59.30;;;;;;21977418;26;20398;-44
2024/04/12 07:46:49;;;;;;;13.13;7.53;;;14.80;46.70;;;;;;21978753;26;20023;-44
2024/04/12 07:57:07;;;;;;;11.70;6.97;;;15.20;36.60;;;;;;21960990;26;20009;-44
2024/04/12 08:07:17;;;;;;;12.50;7.00;;;15.40;17.20;;;;;;21919087;26;20029;-44
2024/04/12 08:17:25;;;;;;;11.00;6.13;;;15.60;13.00;;;;;;21974364;26;20041;-44
2024/04/12 08:27:28;;;;;;;12.65;6.50;;;15.80;8.20;;;;;;21973903;26;19997;-44
2024/04/12 08:37:36;;;;;;;8.98;5.30;;;16.30;1.00;;;;;;21985718;26;19997;-45
2024/04/12 08:47:37;;;;;;;9.43;4.97;;;16.30;1.00;;;;;;21967583;26;20008;-44
2024/04/12 08:57:41;;;;;;;7.03;4.25;;;16.60;1.00;;;;;;21973064;26;20001;-44
2024/04/12 09:07:44;;;;;;;7.97;3.70;;;17.10;1.00;;;;;;21972683;26;20001;-44
2024/04/12 09:17:47;;;;;;;6.28;3.05;;;17.40;1.00;;;;;;21975801;26;20031;-45
2024/04/12 09:27:48;;;;;;;6.00;2.58;;;18.00;1.00;;;;;;21981280;26;20748;-44
2024/04/12 09:38:01;;;;;;;4.22;1.80;;;18.30;1.00;;;;;;21971552;26;20016;-44
2024/04/12 10:40:11;;;;;;;2.67;0.90;;;19.50;1.00;;;;;;22002968;26;20547;-44
2024/04/12 10:50:19;;;;;;;4.30;0.95;;;20.00;1.00;;;;;;22000329;26;20119;-44
2024/04/12 11:00:28;;;;;;;2.80;0.77;;;20.30;1.00;;;;;;22002800;26;20001;-44
2024/04/12 11:10:38;;;;;;;3.60;0.95;;;20.60;1.00;;;;;;21996051;26;20275;-44
2024/04/12 11:31:27;;;;;;;3.95;0.73;;;21.00;1.00;;;;;;22001854;26;20002;-45
2024/04/12 11:41:28;;;;;;;2.72;0.80;;;20.70;1.00;;;;;;21973712;26;20022;-45
2024/04/12 11:51:33;;;;;;;2.10;0.65;;;20.80;1.00;;;;;;21985267;26;20004;-44
2024/04/12 12:01:37;;;;;;;1.90;0.70;;;20.80;1.00;;;;;;21968647;26;20171;-44
2024/04/12 12:11:42;;;;;;;2.53;0.60;;;20.70;1.00;;;;;;22001730;26;20053;-44
2024/04/12 12:21:43;;;;;;;3.67;0.90;;;21.30;1.00;;;;;;22008233;26;20112;-44
2024/04/12 12:31:46;;;;;;;3.85;1.00;;;21.90;1.00;;;;;;21991436;26;21185;-44
2024/04/12 12:41:48;;;;;;;5.80;2.05;;;22.00;1.00;;;;;;21996305;26;20001;-44
2024/04/12 12:51:50;;;;;;;9.38;0.82;;;22.20;1.00;;;;;;21994548;26;20060;-44
2024/04/12 13:01:51;;;;;;;2.60;0.57;;;21.90;1.00;;;;;;21983523;26;20009;-44
2024/04/12 13:11:52;;;;;;;1.50;0.60;;;21.60;1.00;;;;;;22001265;26;20004;-44
2024/04/12 13:21:54;;;;;;;3.00;0.90;;;20.70;1.00;;;;;;21994052;26;20084;-44
2024/04/12 13:31:57;;;;;;;3.28;1.10;;;20.60;1.00;;;;;;21985392;26;20021;-44
2024/04/12 13:41:58;;;;;;;2.50;0.95;;;20.80;1.00;;;;;;21979767;26;20080;-44
2024/04/12 13:52:00;;;;;;;2.20;0.90;;;22.00;1.00;;;;;;21987373;26;19993;-45
2024/04/12 14:02:04;;;;;;;3.15;0.77;;;23.10;1.00;;;;;;21974611;26;20824;-44
2024/04/12 14:12:05;;;;;;;2.45;0.60;;;22.10;1.00;;;;;;21991623;26;20454;-44
2024/04/12 14:22:06;;;;;;;2.42;0.60;;;21.30;1.00;;;;;;21979577;26;20012;-44
2024/04/12 14:32:09;;;;;;;5.65;0.70;;;21.20;1.00;;;;;;21973044;26;20040;-44
2024/04/12 14:42:15;;;;;;;1.98;0.50;;;21.30;1.00;;;;;;21893054;26;20013;-44
2024/04/12 14:52:16;;;;;;;3.33;0.60;;;21.20;1.00;;;;;;21970580;26;20115;-44
2024/04/12 15:53:38;;;;;;;6.75;1.15;;;19.70;1.00;;;;;;21999949;26;20396;-44
2024/04/12 16:13:59;;;;;;;2.88;1.20;;;19.50;1.00;;;;;;22007709;26;20013;-44
2024/04/12 16:24:00;;;;;;;1.90;1.00;;;19.50;1.00;;;;;;21997589;26;20032;-44
2024/04/12 16:34:01;;;;;;;4.30;1.42;;;19.40;1.00;;;;;;22002330;26;20020;-44
2024/04/12 16:44:02;;;;;;;3.22;1.15;;;19.40;1.00;;;;;;22003580;26;20020;-44
2024/04/12 16:54:03;;;;;;;2.50;1.00;;;19.00;1.00;;;;;;22010334;26;20244;-44
2024/04/12 17:04:04;;;;;;;4.10;1.10;;;18.80;1.00;;;;;;21989187;26;20016;-44
2024/04/12 17:14:06;;;;;;;4.72;1.40;;;18.80;1.00;;;;;;21995713;26;20119;-44
2024/04/12 17:24:08;;;;;;;3.50;1.38;;;18.60;1.00;;;;;;21926677;26;20013;-44
2024/04/12 17:34:09;;;;;;;6.57;1.50;;;18.50;1.00;;;;;;21979774;26;20005;-44
2024/04/12 17:44:10;;;;;;;5.55;1.30;;;18.30;1.00;;;;;;21975131;26;20091;-44
2024/04/12 17:54:11;;;;;;;3.67;1.33;;;18.10;1.00;;;;;;21978171;26;19998;-44
2024/04/12 18:04:12;;;;;;;4.68;1.67;;;17.90;1.00;;;;;;21914190;26;20050;-44
2024/04/12 18:14:15;;;;;;;4.32;1.30;;;17.70;1.00;;;;;;21979714;26;20454;-44
2024/04/12 18:24:19;;;;;;;2.55;1.27;;;17.50;1.00;;;;;;21978417;26;20029;-44
2024/04/12 18:34:22;;;;;;;2.90;1.00;;;17.40;1.00;;;;;;21916146;26;20188;-44
2024/04/12 18:54:43;;;;;;;7.05;1.25;;;17.10;1.00;;;;;;21951158;26;20495;-45
2024/04/12 19:04:45;;;;;;;3.88;1.30;;;17.00;1.00;;;;;;21989529;26;20377;-45
2024/04/12 19:14:46;;;;;;;2.80;0.90;;;17.00;1.00;;;;;;21980755;26;20016;-44
2024/04/12 19:24:48;;;;;;;4.03;1.00;;;17.00;1.00;;;;;;21970483;26;20518;-44
2024/04/12 19:34:49;;;;;;;3.88;1.20;;;16.80;1.00;;;;;;21938379;26;20005;-44
2024/04/12 19:44:50;;;;;;;3.42;1.30;;;16.70;1.00;;;;;;21965917;26;20082;-44
2024/04/12 19:54:51;;;;;;;2.50;1.10;;;16.70;1.00;;;;;;21994819;26;20045;-44
2024/04/12 20:04:53;;;;;;;3.50;1.13;;;16.60;1.00;;;;;;21976687;26;20016;-44
2024/04/12 20:14:54;;;;;;;3.58;1.25;;;16.60;1.00;;;;;;21973798;26;20009;-44
2024/04/12 20:24:55;;;;;;;3.65;1.63;;;16.50;1.00;;;;;;21977326;26;20001;-44
2024/04/12 20:45:17;;;;;;;3.25;1.40;;;16.30;1.00;;;;;;21977037;26;20012;-44
2024/04/12 20:55:18;;;;;;;2.42;1.63;;;16.10;1.00;;;;;;21999171;26;20116;-44
2024/04/12 21:05:19;;;;;;;5.40;2.30;;;16.00;1.00;;;;;;21996851;26;20069;-44
2024/04/12 21:15:20;;;;;;;5.93;2.92;;;15.90;1.00;;;;;;22003779;26;20006;-44
2024/04/12 21:25:21;;;;;;;5.38;2.50;;;15.90;1.00;;;;;;22001270;26;20067;-44
2024/04/12 21:35:22;;;;;;;4.32;2.05;;;15.70;1.00;;;;;;21990933;26;20124;-44
2024/04/12 21:45:23;;;;;;;4.88;2.00;;;15.70;1.00;;;;;;21978044;26;20029;-44
2024/04/12 21:55:24;;;;;;;5.13;2.08;;;15.50;1.00;;;;;;21972178;26;20066;-44
2024/04/12 22:05:25;;;;;;;3.03;1.60;;;15.50;1.00;;;;;;21959971;26;20411;-44
2024/04/12 22:15:26;;;;;;;3.30;1.30;;;15.70;1.00;;;;;;21973397;26;20400;-44
2024/04/12 22:25:27;;;;;;;3.65;1.10;;;15.90;1.00;;;;;;21977768;26;19997;-44
2024/04/12 22:35:32;;;;;;;2.05;1.10;;;15.80;1.00;;;;;;21971509;26;20011;-44
2024/04/12 22:45:33;;;;;;;2.25;1.10;;;16.00;1.00;;;;;;21978009;26;20028;-44
2024/04/12 22:55:36;;;;;;;3.38;1.10;;;16.00;1.00;;;;;;21975594;26;19997;-44
2024/04/12 23:05:37;;;;;;;4.03;1.10;;;16.20;1.00;;;;;;21956053;26;20420;-44
2024/04/12 23:15:38;;;;;;;3.13;0.85;;;16.20;1.00;;;;;;21987884;26;20451;-43
2024/04/12 23:25:40;;;;;;;2.63;1.10;;;16.10;1.00;;;;;;21988044;26;20056;-44
2024/04/12 23:35:41;;;;;;;3.90;1.02;;;16.10;1.00;;;;;;21971759;26;20395;-43
2024/04/12 23:45:42;;;;;;;2.58;1.45;;;16.00;1.00;;;;;;21985103;26;20002;-44
2024/04/12 23:55:43;;;;;;;2.45;0.95;;;16.00;1.00;;;;;;21978998;26;20117;-44
